sensor_id;sensor_type;location;lat;lon;timestamp;pressure;altitude;pressure_sealevel;temperature;humidity
5283;BME280;15376;48.540;9.268;2023-02-12T00:01:29;99451.28;;;2.86;100.00
5283;BME280;15376;48.540;9.268;2023-02-12T00:03:55;99441.78;;;2.84;100.00
5283;BME280;15376;48.540;9.268;2023-02-12T00:06:20;99466.69;;;2.92;100.00
5283;BME280;15376;48.540;9.268;2023-02-12T00:08:51;99453.06;;;2.86;100.00
5283;BME280;15376;48.540;9.268;2023-02-12T00:11:21;99463.97;;;2.94;100.00
5283;BME280;15376;48.540;9.268;2023-02-12T00:13:47;99464.66;;;2.97;100.00
5283;BME280;15376;48.540;9.268;2023-02-12T00:16:16;99465.41;;;2.99;100.00
5283;BME280;15376;48.540;9.268;2023-02-12T00:18:43;99461.34;;;2.94;100.00
5283;BME280;15376;48.540;9.268;2023-02-12T00:21:09;99466.69;;;2.92;100.00
5283;BME280;15376;48.540;9.268;2023-02-12T00:23:35;99464.81;;;2.94;100.00
5283;BME280;15376;48.540;9.268;2023-02-12T00:26:05;99470.31;;;2.90;100.00
5283;BME280;15376;48.540;9.268;2023-02-12T00:28:31;99471.03;;;2.78;100.00
5283;BME280;15376;48.540;9.268;2023-02-12T00:30:56;99465.34;;;2.70;100.00
5283;BME280;15376;48.540;9.268;2023-02-12T00:33:22;99466.28;;;2.53;100.00
5283;BME280;15376;48.540;9.268;2023-02-12T00:35:56;99471.19;;;2.59;100.00
5283;BME280;15376;48.540;9.268;2023-02-12T00:38:22;99479.22;;;2.56;100.00
5283;BME280;15376;48.540;9.268;2023-02-12T00:40:48;99486.47;;;2.51;100.00
5283;BME280;15376;48.540;9.268;2023-02-12T00:43:13;99480.47;;;2.49;100.00
5283;BME280;15376;48.540;9.268;2023-02-12T00:45:38;99452.56;;;2.48;100.00
5283;BME280;15376;48.540;9.268;2023-02-12T00:48:04;99452.06;;;2.57;100.00
5283;BME280;15376;48.540;9.268;2023-02-12T00:50:29;99465.59;;;2.65;100.00
5283;BME280;15376;48.540;9.268;2023-02-12T00:52:55;99477.88;;;2.64;100.00
5283;BME280;15376;48.540;9.268;2023-02-12T00:55:20;99472.38;;;2.69;100.00
5283;BME280;15376;48.540;9.268;2023-02-12T00:57:45;99485.16;;;2.75;100.00
5283;BME280;15376;48.540;9.268;2023-02-12T01:00:12;99460.19;;;2.68;100.00
5283;BME280;15376;48.540;9.268;2023-02-12T01:02:37;99471.38;;;2.72;100.00
5283;BME280;15376;48.540;9.268;2023-02-12T01:05:03;99493.19;;;2.72;100.00
5283;BME280;15376;48.540;9.268;2023-02-12T01:07:28;99490.91;;;2.66;100.00
5283;BME280;15376;48.540;9.268;2023-02-12T01:09:54;99495.22;;;2.67;100.00
5283;BME280;15376;48.540;9.268;2023-02-12T01:12:19;99488.59;;;2.60;100.00
5283;BME280;15376;48.540;9.268;2023-02-12T01:14:44;99495.13;;;2.68;100.00
5283;BME280;15376;48.540;9.268;2023-02-12T01:17:10;99487.94;;;2.72;100.00
5283;BME280;15376;48.540;9.268;2023-02-12T01:19:35;99472.38;;;2.69;100.00
5283;BME280;15376;48.540;9.268;2023-02-12T01:22:00;99463.91;;;2.64;100.00
5283;BME280;15376;48.540;9.268;2023-02-12T01:24:26;99474.41;;;2.64;100.00
5283;BME280;15376;48.540;9.268;2023-02-12T01:26:51;99452.47;;;2.49;100.00
5283;BME280;15376;48.540;9.268;2023-02-12T01:29:16;99472.78;;;2.61;100.00
5283;BME280;15376;48.540;9.268;2023-02-12T01:31:41;99470.25;;;2.60;100.00
5283;BME280;15376;48.540;9.268;2023-02-12T01:34:08;99486.41;;;2.68;100.00
5283;BME280;15376;48.540;9.268;2023-02-12T01:36:34;99481.84;;;2.72;100.00
5283;BME280;15376;48.540;9.268;2023-02-12T01:39:00;99463.91;;;2.64;100.00
5283;BME280;15376;48.540;9.268;2023-02-12T01:41:29;99481.00;;;2.71;100.00
5283;BME280;15376;48.540;9.268;2023-02-12T01:44:38;99490.91;;;2.66;100.00
5283;BME280;15376;48.540;9.268;2023-02-12T01:46:58;99489.38;;;2.62;100.00
5283;BME280;15376;48.540;9.268;2023-02-12T01:49:34;99486.22;;;2.55;100.00
5283;BME280;15376;48.540;9.268;2023-02-12T01:52:08;99484.91;;;2.64;100.00
5283;BME280;15376;48.540;9.268;2023-02-12T01:54:37;99489.22;;;2.65;100.00
5283;BME280;15376;48.540;9.268;2023-02-12T01:57:04;99492.94;;;2.61;100.00
5283;BME280;15376;48.540;9.268;2023-02-12T01:59:31;99478.53;;;2.52;100.00
5283;BME280;15376;48.540;9.268;2023-02-12T02:01:57;99468.13;;;2.51;100.00
5283;BME280;15376;48.540;9.268;2023-02-12T02:04:26;99468.88;;;2.53;100.00
5283;BME280;15376;48.540;9.268;2023-02-12T02:07:01;99477.34;;;2.58;100.00
5283;BME280;15376;48.540;9.268;2023-02-12T02:09:29;99464.66;;;2.50;100.00
5283;BME280;15376;48.540;9.268;2023-02-12T02:11:56;99470.41;;;2.57;100.00
5283;BME280;15376;48.540;9.268;2023-02-12T02:14:40;99470.34;;;2.58;100.00
5283;BME280;15376;48.540;9.268;2023-02-12T02:30:56;99462.56;;;2.57;100.00
5283;BME280;15376;48.540;9.268;2023-02-12T02:36:39;99454.25;;;2.64;100.00
5283;BME280;15376;48.540;9.268;2023-02-12T02:44:13;99441.41;;;2.60;100.00
5283;BME280;15376;48.540;9.268;2023-02-12T02:46:46;99449.09;;;2.63;100.00
5283;BME280;15376;48.540;9.268;2023-02-12T02:49:38;99444.09;;;2.58;100.00
5283;BME280;15376;48.540;9.268;2023-02-12T02:52:08;99419.31;;;2.48;100.00
5283;BME280;15376;48.540;9.268;2023-02-12T02:54:38;99433.44;;;2.61;100.00
5283;BME280;15376;48.540;9.268;2023-02-12T02:57:10;99421.94;;;2.64;100.00
5283;BME280;15376;48.540;9.268;2023-02-12T02:59:41;99444.97;;;2.75;100.00
5283;BME280;15376;48.540;9.268;2023-02-12T03:02:19;99436.16;;;2.60;100.00
5283;BME280;15376;48.540;9.268;2023-02-12T03:04:50;99451.03;;;2.59;100.00
5283;BME280;15376;48.540;9.268;2023-02-12T03:07:25;99436.50;;;2.54;100.00
5283;BME280;15376;48.540;9.268;2023-02-12T03:09:58;99442.84;;;2.65;100.00
5283;BME280;15376;48.540;9.268;2023-02-12T03:12:50;99444.13;;;2.74;100.00
5283;BME280;15376;48.540;9.268;2023-02-12T03:17:48;99454.69;;;2.73;100.00
5283;BME280;15376;48.540;9.268;2023-02-12T03:20:30;99454.78;;;2.71;100.00
5283;BME280;15376;48.540;9.268;2023-02-12T03:23:02;99445.81;;;2.59;100.00
5283;BME280;15376;48.540;9.268;2023-02-12T03:25:56;99451.97;;;2.58;100.00
5283;BME280;15376;48.540;9.268;2023-02-12T03:28:32;99457.31;;;2.57;100.00
5283;BME280;15376;48.540;9.268;2023-02-12T03:31:32;99455.63;;;2.56;100.00
5283;BME280;15376;48.540;9.268;2023-02-12T03:34:12;99464.31;;;2.56;100.00
5283;BME280;15376;48.540;9.268;2023-02-12T03:37:02;99445.44;;;2.50;100.00
5283;BME280;15376;48.540;9.268;2023-02-12T03:42:26;99453.72;;;2.42;100.00
5283;BME280;15376;48.540;9.268;2023-02-12T03:45:01;99446.31;;;2.34;100.00
5283;BME280;15376;48.540;9.268;2023-02-12T03:47:50;99453.09;;;2.39;100.00
5283;BME280;15376;48.540;9.268;2023-02-12T03:53:10;99466.09;;;2.56;100.00
5283;BME280;15376;48.540;9.268;2023-02-12T03:55:39;99459.75;;;2.60;100.00
5283;BME280;15376;48.540;9.268;2023-02-12T03:58:09;99472.72;;;2.63;100.00
5283;BME280;15376;48.540;9.268;2023-02-12T04:00:37;99457.97;;;2.60;100.00
5283;BME280;15376;48.540;9.268;2023-02-12T04:03:03;99462.88;;;2.51;100.00
5283;BME280;15376;48.540;9.268;2023-02-12T04:05:29;99466.59;;;2.47;100.00
5283;BME280;15376;48.540;9.268;2023-02-12T04:07:56;99464.06;;;2.45;100.00
5283;BME280;15376;48.540;9.268;2023-02-12T04:10:41;99467.34;;;2.49;100.00
5283;BME280;15376;48.540;9.268;2023-02-12T04:13:19;99463.56;;;2.54;100.00
5283;BME280;15376;48.540;9.268;2023-02-12T04:16:04;99440.06;;;2.37;100.00
5283;BME280;15376;48.540;9.268;2023-02-12T04:18:46;99472.69;;;2.47;100.00
5283;BME280;15376;48.540;9.268;2023-02-12T04:24:12;99480.47;;;2.49;100.00
5283;BME280;15376;48.540;9.268;2023-02-12T04:29:50;99485.38;;;2.55;100.00
5283;BME280;15376;48.540;9.268;2023-02-12T04:33:07;99487.09;;;2.56;100.00
5283;BME280;15376;48.540;9.268;2023-02-12T04:35:21;99482.00;;;2.53;100.00
5283;BME280;15376;48.540;9.268;2023-02-12T04:37:55;99463.38;;;2.42;100.00
5283;BME280;15376;48.540;9.268;2023-02-12T04:40:23;99489.88;;;2.53;100.00
5283;BME280;15376;48.540;9.268;2023-02-12T04:42:50;99471.16;;;2.43;100.00
5283;BME280;15376;48.540;9.268;2023-02-12T04:45:26;99476.06;;;2.49;100.00
5283;BME280;15376;48.540;9.268;2023-02-12T04:47:52;99482.84;;;2.53;100.00
5283;BME280;15376;48.540;9.268;2023-02-12T04:50:18;99465.66;;;2.48;100.00
5283;BME280;15376;48.540;9.268;2023-02-12T04:52:44;99480.16;;;2.55;100.00
5283;BME280;15376;48.540;9.268;2023-02-12T04:55:09;99468.28;;;2.48;100.00
5283;BME280;15376;48.540;9.268;2023-02-12T04:57:34;99482.16;;;2.50;100.00
5283;BME280;15376;48.540;9.268;2023-02-12T05:00:00;99483.25;;;2.46;100.00
5283;BME280;15376;48.540;9.268;2023-02-12T05:02:25;99480.63;;;2.46;100.00
5283;BME280;15376;48.540;9.268;2023-02-12T05:04:51;99481.72;;;2.42;100.00
5283;BME280;15376;48.540;9.268;2023-02-12T05:07:16;99482.66;;;2.41;100.00
5283;BME280;15376;48.540;9.268;2023-02-12T05:09:41;99479.38;;;2.37;100.00
5283;BME280;15376;48.540;9.268;2023-02-12T05:12:07;99484.53;;;2.39;100.00
5283;BME280;15376;48.540;9.268;2023-02-12T05:14:32;99462.19;;;2.31;100.00
5283;BME280;15376;48.540;9.268;2023-02-12T05:16:58;99475.00;;;2.38;100.00
5283;BME280;15376;48.540;9.268;2023-02-12T05:19:23;99473.22;;;2.38;100.00
5283;BME280;15376;48.540;9.268;2023-02-12T05:21:49;99452.03;;;2.25;100.00
5283;BME280;15376;48.540;9.268;2023-02-12T05:24:15;99486.25;;;2.40;100.00
5283;BME280;15376;48.540;9.268;2023-02-12T05:26:40;99483.69;;;2.38;100.00
5283;BME280;15376;48.540;9.268;2023-02-12T05:29:06;99485.28;;;2.41;100.00
5283;BME280;15376;48.540;9.268;2023-02-12T05:31:31;99483.50;;;2.41;100.00
5283;BME280;15376;48.540;9.268;2023-02-12T05:33:56;99461.44;;;2.29;100.00
5283;BME280;15376;48.540;9.268;2023-02-12T05:36:23;99486.25;;;2.40;100.00
5283;BME280;15376;48.540;9.268;2023-02-12T05:38:51;99475.31;;;2.31;100.00
5283;BME280;15376;48.540;9.268;2023-02-12T05:41:20;99486.41;;;2.37;100.00
5283;BME280;15376;48.540;9.268;2023-02-12T05:43:46;99464.72;;;2.17;100.00
5283;BME280;15376;48.540;9.268;2023-02-12T05:46:12;99485.03;;;2.29;100.00
5283;BME280;15376;48.540;9.268;2023-02-12T05:48:38;99469.63;;;2.23;100.00
5283;BME280;15376;48.540;9.268;2023-02-12T05:51:10;99470.28;;;2.11;100.00
5283;BME280;15376;48.540;9.268;2023-02-12T05:53:37;99481.97;;;2.21;100.00
5283;BME280;15376;48.540;9.268;2023-02-12T05:56:15;99489.75;;;2.23;100.00
5283;BME280;15376;48.540;9.268;2023-02-12T05:58:44;99482.91;;;2.20;100.00
5283;BME280;15376;48.540;9.268;2023-02-12T06:01:13;99472.88;;;2.11;100.00
5283;BME280;15376;48.540;9.268;2023-02-12T06:03:39;99490.47;;;2.09;100.00
5283;BME280;15376;48.540;9.268;2023-02-12T06:06:05;99487.16;;;2.06;100.00
5283;BME280;15376;48.540;9.268;2023-02-12T06:08:30;99476.34;;;1.96;100.00
5283;BME280;15376;48.540;9.268;2023-02-12T06:11:02;99485.16;;;2.11;100.00
5283;BME280;15376;48.540;9.268;2023-02-12T06:13:28;99468.56;;;2.10;100.00
5283;BME280;15376;48.540;9.268;2023-02-12T06:15:54;99469.09;;;2.17;100.00
5283;BME280;15376;48.540;9.268;2023-02-12T06:18:19;99461.94;;;2.20;100.00
5283;BME280;15376;48.540;9.268;2023-02-12T06:20:45;99485.97;;;2.28;100.00
5283;BME280;15376;48.540;9.268;2023-02-12T06:23:10;99461.31;;;2.15;100.00
5283;BME280;15376;48.540;9.268;2023-02-12T06:25:35;99482.81;;;2.22;100.00
5283;BME280;15376;48.540;9.268;2023-02-12T06:28:01;99494.47;;;2.16;100.00
5283;BME280;15376;48.540;9.268;2023-02-12T06:30:26;99481.06;;;2.05;100.00
5283;BME280;15376;48.540;9.268;2023-02-12T06:32:52;99490.63;;;2.06;100.00
5283;BME280;15376;48.540;9.268;2023-02-12T06:35:17;99498.81;;;2.00;100.00
5283;BME280;15376;48.540;9.268;2023-02-12T06:37:42;99488.81;;;1.91;100.00
5283;BME280;15376;48.540;9.268;2023-02-12T06:40:08;99497.91;;;1.84;100.00
5283;BME280;15376;48.540;9.268;2023-02-12T06:42:33;99475.44;;;1.62;100.00
5283;BME280;15376;48.540;9.268;2023-02-12T06:44:58;99497.06;;;1.66;100.00
5283;BME280;15376;48.540;9.268;2023-02-12T06:47:24;99495.03;;;1.55;100.00
5283;BME280;15376;48.540;9.268;2023-02-12T06:49:49;99501.63;;;1.45;100.00
5283;BME280;15376;48.540;9.268;2023-02-12T06:52:14;99487.06;;;1.40;100.00
5283;BME280;15376;48.540;9.268;2023-02-12T06:54:40;99471.59;;;1.18;100.00
5283;BME280;15376;48.540;9.268;2023-02-12T06:57:05;99482.06;;;1.18;100.00
5283;BME280;15376;48.540;9.268;2023-02-12T06:59:31;99492.34;;;1.21;100.00
5283;BME280;15376;48.540;9.268;2023-02-12T07:01:56;99507.91;;;1.24;100.00
5283;BME280;15376;48.540;9.268;2023-02-12T07:04:21;99506.41;;;1.20;100.00
5283;BME280;15376;48.540;9.268;2023-02-12T07:06:47;99512.84;;;1.13;100.00
5283;BME280;15376;48.540;9.268;2023-02-12T07:09:12;99505.28;;;1.07;100.00
5283;BME280;15376;48.540;9.268;2023-02-12T07:11:38;99495.81;;;0.85;100.00
5283;BME280;15376;48.540;9.268;2023-02-12T07:14:03;99518.03;;;0.95;100.00
5283;BME280;15376;48.540;9.268;2023-02-12T07:16:29;99520.28;;;1.03;100.00
5283;BME280;15376;48.540;9.268;2023-02-12T07:18:54;99521.56;;;0.94;100.00
5283;BME280;15376;48.540;9.268;2023-02-12T07:21:20;99522.03;;;1.03;100.00
5283;BME280;15376;48.540;9.268;2023-02-12T07:23:47;99532.47;;;1.21;100.00
5283;BME280;15376;48.540;9.268;2023-02-12T07:26:13;99510.03;;;0.98;100.00
5283;BME280;15376;48.540;9.268;2023-02-12T07:28:40;99529.69;;;1.07;100.00
5283;BME280;15376;48.540;9.268;2023-02-12T07:31:11;99528.59;;;1.11;100.00
5283;BME280;15376;48.540;9.268;2023-02-12T07:33:37;99530.09;;;1.34;100.00
5283;BME280;15376;48.540;9.268;2023-02-12T07:36:06;99528.59;;;1.47;100.00
5283;BME280;15376;48.540;9.268;2023-02-12T07:38:35;99520.28;;;1.56;100.00
5283;BME280;15376;48.540;9.268;2023-02-12T07:41:12;99525.38;;;1.59;100.00
5283;BME280;15376;48.540;9.268;2023-02-12T07:43:39;99512.44;;;1.56;100.00
5283;BME280;15376;48.540;9.268;2023-02-12T07:46:10;99537.81;;;1.72;100.00
5283;BME280;15376;48.540;9.268;2023-02-12T07:48:36;99528.59;;;1.82;100.00
5283;BME280;15376;48.540;9.268;2023-02-12T07:51:06;99515.50;;;1.82;100.00
5283;BME280;15376;48.540;9.268;2023-02-12T07:53:32;99531.97;;;1.84;100.00
5283;BME280;15376;48.540;9.268;2023-02-12T07:58:30;99520.22;;;2.08;100.00
5283;BME280;15376;48.540;9.268;2023-02-12T08:00:55;99516.84;;;2.06;100.00
5283;BME280;15376;48.540;9.268;2023-02-12T08:03:21;99474.09;;;1.88;100.00
5283;BME280;15376;48.540;9.268;2023-02-12T08:05:46;99517.19;;;2.33;100.00
5283;BME280;15376;48.540;9.268;2023-02-12T08:08:11;99517.72;;;2.55;100.00
5283;BME280;15376;48.540;9.268;2023-02-12T08:10:37;99519.09;;;2.78;100.00
5283;BME280;15376;48.540;9.268;2023-02-12T08:13:02;99515.00;;;2.88;100.00
5283;BME280;15376;48.540;9.268;2023-02-12T08:15:27;99507.06;;;2.90;100.00
5283;BME280;15376;48.540;9.268;2023-02-12T08:17:52;99523.56;;;3.08;100.00
5283;BME280;15376;48.540;9.268;2023-02-12T08:20:19;99516.34;;;3.27;100.00
5283;BME280;15376;48.540;9.268;2023-02-12T08:22:45;99500.06;;;3.20;100.00
5283;BME280;15376;48.540;9.268;2023-02-12T08:25:10;99513.44;;;3.47;100.00
5283;BME280;15376;48.540;9.268;2023-02-12T08:27:35;99497.03;;;3.58;100.00
5283;BME280;15376;48.540;9.268;2023-02-12T08:30:01;99506.56;;;3.75;100.00
5283;BME280;15376;48.540;9.268;2023-02-12T08:32:26;99508.91;;;3.79;100.00
5283;BME280;15376;48.540;9.268;2023-02-12T08:34:53;99502.66;;;3.96;100.00
5283;BME280;15376;48.540;9.268;2023-02-12T08:37:19;99487.63;;;3.84;100.00
5283;BME280;15376;48.540;9.268;2023-02-12T08:39:44;99504.91;;;4.02;100.00
5283;BME280;15376;48.540;9.268;2023-02-12T08:42:09;99500.22;;;4.21;100.00
5283;BME280;15376;48.540;9.268;2023-02-12T08:44:35;99500.56;;;4.01;100.00
5283;BME280;15376;48.540;9.268;2023-02-12T08:47:01;99499.97;;;4.26;100.00
5283;BME280;15376;48.540;9.268;2023-02-12T08:49:28;99498.38;;;4.38;100.00
5283;BME280;15376;48.540;9.268;2023-02-12T08:51:55;99498.81;;;4.58;100.00
5283;BME280;15376;48.540;9.268;2023-02-12T08:54:26;99495.97;;;4.76;100.00
5283;BME280;15376;48.540;9.268;2023-02-12T08:56:56;99498.16;;;4.96;100.00
5283;BME280;15376;48.540;9.268;2023-02-12T08:59:22;99495.59;;;4.67;100.00
5283;BME280;15376;48.540;9.268;2023-02-12T09:01:50;99483.09;;;4.71;100.00
5283;BME280;15376;48.540;9.268;2023-02-12T09:04:20;99494.94;;;4.78;100.00
5283;BME280;15376;48.540;9.268;2023-02-12T09:06:46;99499.38;;;4.49;100.00
5283;BME280;15376;48.540;9.268;2023-02-12T09:09:11;99494.09;;;4.78;100.00
5283;BME280;15376;48.540;9.268;2023-02-12T09:11:37;99477.28;;;4.52;100.00
5283;BME280;15376;48.540;9.268;2023-02-12T09:14:05;99466.94;;;4.49;100.00
5283;BME280;15376;48.540;9.268;2023-02-12T09:16:34;99481.41;;;4.56;100.00
5283;BME280;15376;48.540;9.268;2023-02-12T09:19:00;99479.44;;;4.59;100.00
5283;BME280;15376;48.540;9.268;2023-02-12T09:21:28;99477.03;;;4.83;100.00
5283;BME280;15376;48.540;9.268;2023-02-12T09:23:53;99479.63;;;4.97;100.00
5283;BME280;15376;48.540;9.268;2023-02-12T09:26:22;99488.09;;;5.02;100.00
5283;BME280;15376;48.540;9.268;2023-02-12T09:28:49;99483.19;;;5.11;100.00
5283;BME280;15376;48.540;9.268;2023-02-12T09:31:26;99491.44;;;5.31;100.00
5283;BME280;15376;48.540;9.268;2023-02-12T09:33:54;99480.81;;;5.33;100.00
5283;BME280;15376;48.540;9.268;2023-02-12T09:36:20;99485.09;;;5.61;100.00
5283;BME280;15376;48.540;9.268;2023-02-12T09:38:46;99493.34;;;5.69;100.00
5283;BME280;15376;48.540;9.268;2023-02-12T09:41:34;99495.59;;;6.00;100.00
5283;BME280;15376;48.540;9.268;2023-02-12T09:44:32;99490.84;;;6.44;100.00
5283;BME280;15376;48.540;9.268;2023-02-12T09:47:18;99484.28;;;6.62;100.00
5283;BME280;15376;48.540;9.268;2023-02-12T09:52:33;99489.13;;;6.68;100.00
5283;BME280;15376;48.540;9.268;2023-02-12T09:54:59;99497.91;;;6.56;100.00
5283;BME280;15376;48.540;9.268;2023-02-12T09:57:31;99495.44;;;6.78;100.00
5283;BME280;15376;48.540;9.268;2023-02-12T10:00:04;99482.69;;;6.72;100.00
5283;BME280;15376;48.540;9.268;2023-02-12T10:02:30;99477.41;;;6.96;100.00
5283;BME280;15376;48.540;9.268;2023-02-12T10:04:59;99504.13;;;7.28;100.00
5283;BME280;15376;48.540;9.268;2023-02-12T10:12:56;99496.03;;;6.94;100.00
5283;BME280;15376;48.540;9.268;2023-02-12T10:15:36;99491.75;;;7.28;100.00
5283;BME280;15376;48.540;9.268;2023-02-12T10:23:36;99505.81;;;7.29;100.00
5283;BME280;15376;48.540;9.268;2023-02-12T10:28:46;99495.34;;;8.32;100.00
5283;BME280;15376;48.540;9.268;2023-02-12T10:31:31;99496.66;;;8.60;100.00
5283;BME280;15376;48.540;9.268;2023-02-12T10:33:59;99481.50;;;8.62;100.00
5283;BME280;15376;48.540;9.268;2023-02-12T10:39:24;99488.78;;;9.03;98.84
5283;BME280;15376;48.540;9.268;2023-02-12T10:42:18;99475.47;;;8.60;98.71
5283;BME280;15376;48.540;9.268;2023-02-12T10:44:46;99485.22;;;8.71;98.36
5283;BME280;15376;48.540;9.268;2023-02-12T10:47:17;99475.59;;;8.70;98.73
5283;BME280;15376;48.540;9.268;2023-02-12T10:49:44;99469.56;;;8.79;97.50
5283;BME280;15376;48.540;9.268;2023-02-12T10:54:59;99471.81;;;8.95;95.78
5283;BME280;15376;48.540;9.268;2023-02-12T10:57:27;99461.91;;;8.97;96.70
5283;BME280;15376;48.540;9.268;2023-02-12T10:59:56;99467.56;;;9.03;96.71
5283;BME280;15376;48.540;9.268;2023-02-12T11:02:38;99453.84;;;8.98;96.05
5283;BME280;15376;48.540;9.268;2023-02-12T11:05:23;99452.88;;;8.99;95.37
5283;BME280;15376;48.540;9.268;2023-02-12T11:07:50;99458.78;;;8.92;96.11
5283;BME280;15376;48.540;9.268;2023-02-12T11:10:24;99447.66;;;8.77;96.48
5283;BME280;15376;48.540;9.268;2023-02-12T11:12:50;99442.66;;;9.27;96.37
5283;BME280;15376;48.540;9.268;2023-02-12T11:15:18;99454.38;;;9.56;94.18
5283;BME280;15376;48.540;9.268;2023-02-12T11:17:54;99431.31;;;9.36;93.93
5283;BME280;15376;48.540;9.268;2023-02-12T11:23:22;99436.75;;;8.91;96.44
5283;BME280;15376;48.540;9.268;2023-02-12T11:28:56;99438.25;;;8.73;97.48
5283;BME280;15376;48.540;9.268;2023-02-12T11:31:30;99438.25;;;8.73;98.17
5283;BME280;15376;48.540;9.268;2023-02-12T11:36:39;99448.78;;;9.07;97.02
5283;BME280;15376;48.540;9.268;2023-02-12T11:39:26;99440.13;;;8.93;98.67
5283;BME280;15376;48.540;9.268;2023-02-12T11:41:54;99441.47;;;8.88;97.31
5283;BME280;15376;48.540;9.268;2023-02-12T11:44:27;99433.63;;;8.86;98.67
5283;BME280;15376;48.540;9.268;2023-02-12T11:46:59;99435.03;;;9.13;98.02
5283;BME280;15376;48.540;9.268;2023-02-12T11:49:31;99434.69;;;9.06;97.76
5283;BME280;15376;48.540;9.268;2023-02-12T11:51:59;99416.47;;;9.33;96.49
5283;BME280;15376;48.540;9.268;2023-02-12T11:54:39;99420.03;;;9.23;94.87
5283;BME280;15376;48.540;9.268;2023-02-12T11:57:06;99423.91;;;9.19;95.77
5283;BME280;15376;48.540;9.268;2023-02-12T11:59:37;99423.41;;;8.82;96.19
5283;BME280;15376;48.540;9.268;2023-02-12T12:02:18;99424.66;;;9.10;97.58
5283;BME280;15376;48.540;9.268;2023-02-12T12:04:48;99432.16;;;9.05;96.57
5283;BME280;15376;48.540;9.268;2023-02-12T12:07:21;99417.97;;;8.94;96.97
5283;BME280;15376;48.540;9.268;2023-02-12T12:10:06;99416.75;;;8.98;97.62
5283;BME280;15376;48.540;9.268;2023-02-12T12:12:41;99414.69;;;8.59;97.96
5283;BME280;15376;48.540;9.268;2023-02-12T12:15:19;99420.81;;;8.71;99.11
5283;BME280;15376;48.540;9.268;2023-02-12T12:18:16;99410.34;;;8.47;99.79
5283;BME280;15376;48.540;9.268;2023-02-12T12:21:27;99412.50;;;8.53;99.96
5283;BME280;15376;48.540;9.268;2023-02-12T12:24:02;99419.28;;;8.34;100.00
5283;BME280;15376;48.540;9.268;2023-02-12T12:26:30;99418.22;;;8.37;100.00
5283;BME280;15376;48.540;9.268;2023-02-12T12:29:06;99406.50;;;8.28;100.00
5283;BME280;15376;48.540;9.268;2023-02-12T12:31:42;99411.91;;;8.27;100.00
5283;BME280;15376;48.540;9.268;2023-02-12T12:34:13;99406.66;;;8.38;100.00
5283;BME280;15376;48.540;9.268;2023-02-12T12:56:28;99390.31;;;9.19;98.21
5283;BME280;15376;48.540;9.268;2023-02-12T13:02:04;99383.44;;;9.17;98.77
5283;BME280;15376;48.540;9.268;2023-02-12T13:04:50;99391.53;;;9.15;97.68
5283;BME280;15376;48.540;9.268;2023-02-12T13:07:39;99390.22;;;9.10;98.60
5283;BME280;15376;48.540;9.268;2023-02-12T13:13:04;99393.59;;;9.32;98.41
5283;BME280;15376;48.540;9.268;2023-02-12T13:15:38;99380.47;;;9.31;97.60
5283;BME280;15376;48.540;9.268;2023-02-12T13:18:40;99386.09;;;9.17;98.12
5283;BME280;15376;48.540;9.268;2023-02-12T13:21:28;99386.56;;;9.43;98.06
5283;BME280;15376;48.540;9.268;2023-02-12T13:24:02;99378.53;;;9.33;97.91
5283;BME280;15376;48.540;9.268;2023-02-12T13:26:47;99374.25;;;9.42;97.33
5283;BME280;15376;48.540;9.268;2023-02-12T13:29:50;99377.25;;;9.48;96.71
5283;BME280;15376;48.540;9.268;2023-02-12T13:32:22;99376.22;;;9.19;97.76
5283;BME280;15376;48.540;9.268;2023-02-12T13:34:49;99376.88;;;9.00;99.30
5283;BME280;15376;48.540;9.268;2023-02-12T13:37:19;99368.06;;;8.79;100.00
5283;BME280;15376;48.540;9.268;2023-02-12T13:39:48;99362.91;;;8.66;100.00
5283;BME280;15376;48.540;9.268;2023-02-12T13:50:41;99367.50;;;8.53;100.00
5283;BME280;15376;48.540;9.268;2023-02-12T13:53:22;99344.81;;;8.39;100.00
5283;BME280;15376;48.540;9.268;2023-02-12T13:56:00;99351.75;;;8.40;100.00
5283;BME280;15376;48.540;9.268;2023-02-12T14:01:00;99357.53;;;8.23;100.00
5283;BME280;15376;48.540;9.268;2023-02-12T14:03:28;99356.94;;;8.19;100.00
5283;BME280;15376;48.540;9.268;2023-02-12T14:08:39;99330.13;;;8.01;100.00
5283;BME280;15376;48.540;9.268;2023-02-12T14:11:12;99349.47;;;8.02;100.00
5283;BME280;15376;48.540;9.268;2023-02-12T14:16:35;99348.91;;;7.98;100.00
5283;BME280;15376;48.540;9.268;2023-02-12T14:24:52;99348.06;;;7.87;100.00
5283;BME280;15376;48.540;9.268;2023-02-12T14:40:44;99324.09;;;7.66;100.00
5283;BME280;15376;48.540;9.268;2023-02-12T14:46:42;99306.44;;;7.44;100.00
5283;BME280;15376;48.540;9.268;2023-02-12T14:48:56;99327.25;;;7.49;100.00
5283;BME280;15376;48.540;9.268;2023-02-12T14:53:54;99328.53;;;7.43;100.00
5283;BME280;15376;48.540;9.268;2023-02-12T14:56:21;99320.97;;;7.39;100.00
5283;BME280;15376;48.540;9.268;2023-02-12T14:58:48;99306.66;;;7.30;100.00
5283;BME280;15376;48.540;9.268;2023-02-12T15:01:15;99318.44;;;7.37;100.00
5283;BME280;15376;48.540;9.268;2023-02-12T15:03:51;99320.34;;;7.35;100.00
5283;BME280;15376;48.540;9.268;2023-02-12T15:06:21;99320.34;;;7.35;100.00
5283;BME280;15376;48.540;9.268;2023-02-12T15:08:57;99319.97;;;7.28;100.00
5283;BME280;15376;48.540;9.268;2023-02-12T15:11:44;99314.81;;;7.27;100.00
5283;BME280;15376;48.540;9.268;2023-02-12T15:14:19;99316.00;;;7.23;100.00
5283;BME280;15376;48.540;9.268;2023-02-12T15:17:04;99311.78;;;7.20;100.00
5283;BME280;15376;48.540;9.268;2023-02-12T15:19:42;99297.72;;;7.09;100.00
5283;BME280;15376;48.540;9.268;2023-02-12T15:22:28;99310.72;;;7.23;100.00
5283;BME280;15376;48.540;9.268;2023-02-12T15:30:41;99317.28;;;7.06;100.00
5283;BME280;15376;48.540;9.268;2023-02-12T15:33:07;99312.59;;;6.98;100.00
5283;BME280;15376;48.540;9.268;2023-02-12T15:35:36;99306.84;;;7.05;100.00
5283;BME280;15376;48.540;9.268;2023-02-12T15:38:03;99311.41;;;7.02;100.00
5283;BME280;15376;48.540;9.268;2023-02-12T15:40:32;99319.03;;;7.18;100.00
5283;BME280;15376;48.540;9.268;2023-02-12T15:43:01;99316.94;;;7.11;100.00
5283;BME280;15376;48.540;9.268;2023-02-12T15:45:29;99317.78;;;7.11;100.00
5283;BME280;15376;48.540;9.268;2023-02-12T15:50:33;99315.66;;;7.16;100.00
5283;BME280;15376;48.540;9.268;2023-02-12T15:53:00;99310.22;;;7.07;100.00
5283;BME280;15376;48.540;9.268;2023-02-12T15:55:31;99299.34;;;6.87;100.00